sensor_id;sensor_type;location;lat;lon;timestamp;P1;durP1;ratioP1;P2;durP2;ratioP2
11121;SDS011;5615;49.304;10.576;2023-08-20T00:00:11;15.95;;;10.57;;
11121;SDS011;5615;49.304;10.576;2023-08-20T00:02:39;11.27;;;10.02;;
11121;SDS011;5615;49.304;10.576;2023-08-20T00:05:08;11.38;;;10.13;;
11121;SDS011;5615;49.304;10.576;2023-08-20T00:07:35;12.48;;;9.75;;
11121;SDS011;5615;49.304;10.576;2023-08-20T00:10:03;11.52;;;10.32;;
11121;SDS011;5615;49.304;10.576;2023-08-20T00:12:32;11.48;;;9.75;;
11121;SDS011;5615;49.304;10.576;2023-08-20T00:14:59;11.15;;;9.98;;
11121;SDS011;5615;49.304;10.576;2023-08-20T00:17:31;14.18;;;9.80;;
11121;SDS011;5615;49.304;10.576;2023-08-20T00:19:58;13.88;;;10.48;;
11121;SDS011;5615;49.304;10.576;2023-08-20T00:22:25;14.60;;;13.20;;
11121;SDS011;5615;49.304;10.576;2023-08-20T00:24:53;12.18;;;10.30;;
11121;SDS011;5615;49.304;10.576;2023-08-20T00:27:20;11.27;;;10.05;;
11121;SDS011;5615;49.304;10.576;2023-08-20T00:29:48;11.68;;;10.48;;
11121;SDS011;5615;49.304;10.576;2023-08-20T00:32:15;11.40;;;10.25;;
11121;SDS011;5615;49.304;10.576;2023-08-20T00:34:42;17.92;;;10.32;;
11121;SDS011;5615;49.304;10.576;2023-08-20T00:37:09;13.60;;;10.50;;
11121;SDS011;5615;49.304;10.576;2023-08-20T00:39:37;11.60;;;9.98;;
11121;SDS011;5615;49.304;10.576;2023-08-20T00:42:03;14.77;;;10.75;;
11121;SDS011;5615;49.304;10.576;2023-08-20T00:44:30;11.63;;;10.43;;
11121;SDS011;5615;49.304;10.576;2023-08-20T00:46:58;11.68;;;10.30;;
11121;SDS011;5615;49.304;10.576;2023-08-20T00:49:26;15.13;;;12.68;;
11121;SDS011;5615;49.304;10.576;2023-08-20T00:51:53;17.55;;;12.02;;
11121;SDS011;5615;49.304;10.576;2023-08-20T00:54:20;13.73;;;11.88;;
11121;SDS011;5615;49.304;10.576;2023-08-20T00:56:48;14.25;;;12.88;;
11121;SDS011;5615;49.304;10.576;2023-08-20T00:59:16;16.08;;;11.90;;
11121;SDS011;5615;49.304;10.576;2023-08-20T01:01:42;14.85;;;12.45;;
11121;SDS011;5615;49.304;10.576;2023-08-20T01:04:11;14.80;;;12.80;;
11121;SDS011;5615;49.304;10.576;2023-08-20T01:06:39;15.50;;;12.32;;
11121;SDS011;5615;49.304;10.576;2023-08-20T01:09:14;13.88;;;12.25;;
11121;SDS011;5615;49.304;10.576;2023-08-20T01:11:49;14.20;;;12.70;;
11121;SDS011;5615;49.304;10.576;2023-08-20T01:14:21;13.95;;;12.00;;
11121;SDS011;5615;49.304;10.576;2023-08-20T01:16:47;13.25;;;11.95;;
11121;SDS011;5615;49.304;10.576;2023-08-20T01:19:16;14.02;;;12.32;;
11121;SDS011;5615;49.304;10.576;2023-08-20T01:21:47;12.65;;;11.35;;
11121;SDS011;5615;49.304;10.576;2023-08-20T01:24:29;12.40;;;11.20;;
11121;SDS011;5615;49.304;10.576;2023-08-20T01:27:10;17.55;;;14.55;;
11121;SDS011;5615;49.304;10.576;2023-08-20T01:29:52;14.80;;;12.23;;
11121;SDS011;5615;49.304;10.576;2023-08-20T01:32:20;13.93;;;11.40;;
11121;SDS011;5615;49.304;10.576;2023-08-20T01:34:48;16.65;;;14.98;;
11121;SDS011;5615;49.304;10.576;2023-08-20T01:37:15;15.73;;;13.95;;
11121;SDS011;5615;49.304;10.576;2023-08-20T01:39:42;15.15;;;12.70;;
11121;SDS011;5615;49.304;10.576;2023-08-20T01:42:08;15.57;;;14.00;;
11121;SDS011;5615;49.304;10.576;2023-08-20T01:44:35;17.15;;;12.85;;
11121;SDS011;5615;49.304;10.576;2023-08-20T01:47:03;14.73;;;12.82;;
11121;SDS011;5615;49.304;10.576;2023-08-20T01:49:30;14.05;;;12.20;;
11121;SDS011;5615;49.304;10.576;2023-08-20T01:51:57;13.13;;;11.90;;
11121;SDS011;5615;49.304;10.576;2023-08-20T01:54:23;15.68;;;14.27;;
11121;SDS011;5615;49.304;10.576;2023-08-20T01:56:50;16.83;;;12.40;;
11121;SDS011;5615;49.304;10.576;2023-08-20T01:59:17;21.25;;;12.05;;
11121;SDS011;5615;49.304;10.576;2023-08-20T02:01:43;13.20;;;11.77;;
11121;SDS011;5615;49.304;10.576;2023-08-20T02:04:11;13.88;;;11.90;;
11121;SDS011;5615;49.304;10.576;2023-08-20T02:06:38;14.45;;;13.10;;
11121;SDS011;5615;49.304;10.576;2023-08-20T02:09:04;19.85;;;12.90;;
11121;SDS011;5615;49.304;10.576;2023-08-20T02:11:31;14.00;;;12.60;;
11121;SDS011;5615;49.304;10.576;2023-08-20T02:14:00;14.70;;;12.32;;
11121;SDS011;5615;49.304;10.576;2023-08-20T02:16:27;16.67;;;15.07;;
11121;SDS011;5615;49.304;10.576;2023-08-20T02:18:54;15.20;;;13.60;;
11121;SDS011;5615;49.304;10.576;2023-08-20T02:21:22;13.98;;;12.55;;
11121;SDS011;5615;49.304;10.576;2023-08-20T02:23:48;14.15;;;12.77;;
11121;SDS011;5615;49.304;10.576;2023-08-20T02:26:15;14.80;;;13.50;;
11121;SDS011;5615;49.304;10.576;2023-08-20T02:28:42;14.52;;;13.13;;
11121;SDS011;5615;49.304;10.576;2023-08-20T02:31:08;14.05;;;12.75;;
11121;SDS011;5615;49.304;10.576;2023-08-20T02:33:35;17.88;;;13.57;;
11121;SDS011;5615;49.304;10.576;2023-08-20T02:36:02;13.38;;;11.98;;
11121;SDS011;5615;49.304;10.576;2023-08-20T02:38:30;15.25;;;13.75;;
11121;SDS011;5615;49.304;10.576;2023-08-20T02:40:57;15.82;;;14.27;;
11121;SDS011;5615;49.304;10.576;2023-08-20T02:43:24;14.90;;;13.45;;
11121;SDS011;5615;49.304;10.576;2023-08-20T02:45:50;16.52;;;14.93;;
11121;SDS011;5615;49.304;10.576;2023-08-20T02:48:17;17.55;;;14.02;;
11121;SDS011;5615;49.304;10.576;2023-08-20T02:50:44;14.70;;;13.15;;
11121;SDS011;5615;49.304;10.576;2023-08-20T02:53:11;15.10;;;13.60;;
11121;SDS011;5615;49.304;10.576;2023-08-20T02:55:39;13.65;;;12.30;;
11121;SDS011;5615;49.304;10.576;2023-08-20T02:58:05;15.45;;;13.80;;
11121;SDS011;5615;49.304;10.576;2023-08-20T03:00:33;15.50;;;12.95;;
11121;SDS011;5615;49.304;10.576;2023-08-20T03:03:00;14.93;;;12.25;;
11121;SDS011;5615;49.304;10.576;2023-08-20T03:05:29;14.27;;;12.77;;
11121;SDS011;5615;49.304;10.576;2023-08-20T03:07:55;14.40;;;12.18;;
11121;SDS011;5615;49.304;10.576;2023-08-20T03:10:22;14.23;;;12.77;;
11121;SDS011;5615;49.304;10.576;2023-08-20T03:12:50;19.58;;;17.40;;
11121;SDS011;5615;49.304;10.576;2023-08-20T03:15:16;17.85;;;12.25;;
11121;SDS011;5615;49.304;10.576;2023-08-20T03:17:43;14.82;;;13.15;;
11121;SDS011;5615;49.304;10.576;2023-08-20T03:20:10;15.02;;;13.63;;
11121;SDS011;5615;49.304;10.576;2023-08-20T03:22:37;16.00;;;14.02;;
11121;SDS011;5615;49.304;10.576;2023-08-20T03:25:04;17.08;;;14.98;;
11121;SDS011;5615;49.304;10.576;2023-08-20T03:27:32;16.20;;;14.65;;
11121;SDS011;5615;49.304;10.576;2023-08-20T03:30:00;15.02;;;13.45;;
11121;SDS011;5615;49.304;10.576;2023-08-20T03:32:27;17.40;;;15.05;;
11121;SDS011;5615;49.304;10.576;2023-08-20T03:34:53;16.00;;;14.38;;
11121;SDS011;5615;49.304;10.576;2023-08-20T03:37:20;19.15;;;17.40;;
11121;SDS011;5615;49.304;10.576;2023-08-20T03:39:47;20.10;;;18.15;;
11121;SDS011;5615;49.304;10.576;2023-08-20T03:42:14;17.63;;;15.95;;
11121;SDS011;5615;49.304;10.576;2023-08-20T03:44:41;16.83;;;15.13;;
11121;SDS011;5615;49.304;10.576;2023-08-20T03:47:09;20.95;;;18.73;;
11121;SDS011;5615;49.304;10.576;2023-08-20T03:49:35;27.55;;;24.95;;
11121;SDS011;5615;49.304;10.576;2023-08-20T03:52:02;23.38;;;21.15;;
11121;SDS011;5615;49.304;10.576;2023-08-20T03:54:31;24.70;;;18.23;;
11121;SDS011;5615;49.304;10.576;2023-08-20T03:56:58;20.67;;;18.73;;
11121;SDS011;5615;49.304;10.576;2023-08-20T03:59:25;18.27;;;16.20;;
11121;SDS011;5615;49.304;10.576;2023-08-20T04:01:52;23.10;;;19.30;;
11121;SDS011;5615;49.304;10.576;2023-08-20T04:04:20;22.23;;;19.58;;
11121;SDS011;5615;49.304;10.576;2023-08-20T04:06:47;22.42;;;20.50;;
11121;SDS011;5615;49.304;10.576;2023-08-20T04:09:13;26.35;;;24.23;;
11121;SDS011;5615;49.304;10.576;2023-08-20T04:11:41;23.13;;;20.95;;
11121;SDS011;5615;49.304;10.576;2023-08-20T04:14:08;25.88;;;23.77;;
11121;SDS011;5615;49.304;10.576;2023-08-20T04:16:34;24.45;;;21.98;;
11121;SDS011;5615;49.304;10.576;2023-08-20T04:19:01;22.58;;;20.20;;
11121;SDS011;5615;49.304;10.576;2023-08-20T04:21:29;17.17;;;15.38;;
11121;SDS011;5615;49.304;10.576;2023-08-20T04:23:56;22.50;;;19.83;;
11121;SDS011;5615;49.304;10.576;2023-08-20T04:26:23;16.55;;;14.93;;
11121;SDS011;5615;49.304;10.576;2023-08-20T04:28:49;20.33;;;16.27;;
11121;SDS011;5615;49.304;10.576;2023-08-20T04:31:16;17.80;;;16.20;;
11121;SDS011;5615;49.304;10.576;2023-08-20T04:33:42;17.15;;;15.55;;
11121;SDS011;5615;49.304;10.576;2023-08-20T04:36:11;19.38;;;17.45;;
11121;SDS011;5615;49.304;10.576;2023-08-20T04:38:39;19.65;;;17.95;;
11121;SDS011;5615;49.304;10.576;2023-08-20T04:41:05;20.10;;;18.27;;
11121;SDS011;5615;49.304;10.576;2023-08-20T04:43:32;21.00;;;18.95;;
11121;SDS011;5615;49.304;10.576;2023-08-20T04:45:59;16.25;;;14.45;;
11121;SDS011;5615;49.304;10.576;2023-08-20T04:48:25;16.77;;;15.05;;
11121;SDS011;5615;49.304;10.576;2023-08-20T04:50:52;15.77;;;14.27;;
11121;SDS011;5615;49.304;10.576;2023-08-20T04:53:18;15.65;;;14.20;;
11121;SDS011;5615;49.304;10.576;2023-08-20T04:55:46;15.85;;;14.15;;
11121;SDS011;5615;49.304;10.576;2023-08-20T04:58:13;18.73;;;13.95;;
11121;SDS011;5615;49.304;10.576;2023-08-20T05:00:39;14.52;;;13.15;;
11121;SDS011;5615;49.304;10.576;2023-08-20T05:03:06;14.05;;;12.63;;
11121;SDS011;5615;49.304;10.576;2023-08-20T05:05:33;14.52;;;13.05;;
11121;SDS011;5615;49.304;10.576;2023-08-20T05:07:59;13.82;;;12.43;;
11121;SDS011;5615;49.304;10.576;2023-08-20T05:10:26;13.45;;;12.15;;
11121;SDS011;5615;49.304;10.576;2023-08-20T05:12:54;15.80;;;12.30;;
11121;SDS011;5615;49.304;10.576;2023-08-20T05:15:20;15.10;;;12.40;;
11121;SDS011;5615;49.304;10.576;2023-08-20T05:17:47;17.05;;;12.98;;
11121;SDS011;5615;49.304;10.576;2023-08-20T05:20:14;14.88;;;13.32;;
11121;SDS011;5615;49.304;10.576;2023-08-20T05:22:41;16.92;;;15.15;;
11121;SDS011;5615;49.304;10.576;2023-08-20T05:25:07;17.30;;;14.48;;
11121;SDS011;5615;49.304;10.576;2023-08-20T05:27:34;15.73;;;14.15;;
11121;SDS011;5615;49.304;10.576;2023-08-20T05:30:03;21.60;;;19.67;;
11121;SDS011;5615;49.304;10.576;2023-08-20T05:32:30;18.92;;;17.10;;
11121;SDS011;5615;49.304;10.576;2023-08-20T05:34:57;16.92;;;15.30;;
11121;SDS011;5615;49.304;10.576;2023-08-20T05:37:23;18.25;;;14.60;;
11121;SDS011;5615;49.304;10.576;2023-08-20T05:39:50;14.70;;;13.32;;
11121;SDS011;5615;49.304;10.576;2023-08-20T05:42:16;14.50;;;12.80;;
11121;SDS011;5615;49.304;10.576;2023-08-20T05:44:43;13.25;;;11.95;;
11121;SDS011;5615;49.304;10.576;2023-08-20T05:47:11;15.48;;;13.93;;
11121;SDS011;5615;49.304;10.576;2023-08-20T05:49:38;13.73;;;12.27;;
11121;SDS011;5615;49.304;10.576;2023-08-20T05:52:04;14.23;;;12.82;;
11121;SDS011;5615;49.304;10.576;2023-08-20T05:54:31;13.48;;;12.10;;
11121;SDS011;5615;49.304;10.576;2023-08-20T05:56:58;15.13;;;13.80;;
11121;SDS011;5615;49.304;10.576;2023-08-20T05:59:24;14.82;;;13.40;;
11121;SDS011;5615;49.304;10.576;2023-08-20T06:01:52;13.40;;;12.10;;
11121;SDS011;5615;49.304;10.576;2023-08-20T06:04:20;15.10;;;13.73;;
11121;SDS011;5615;49.304;10.576;2023-08-20T06:06:47;13.05;;;11.75;;
11121;SDS011;5615;49.304;10.576;2023-08-20T06:09:13;15.82;;;13.02;;
11121;SDS011;5615;49.304;10.576;2023-08-20T06:11:40;13.30;;;11.88;;
11121;SDS011;5615;49.304;10.576;2023-08-20T06:14:06;14.95;;;11.60;;
11121;SDS011;5615;49.304;10.576;2023-08-20T06:16:33;14.85;;;11.85;;
11121;SDS011;5615;49.304;10.576;2023-08-20T06:19:00;12.40;;;11.20;;
11121;SDS011;5615;49.304;10.576;2023-08-20T06:21:28;16.98;;;12.70;;
11121;SDS011;5615;49.304;10.576;2023-08-20T06:23:55;12.55;;;11.43;;
11121;SDS011;5615;49.304;10.576;2023-08-20T06:26:21;13.40;;;11.70;;
11121;SDS011;5615;49.304;10.576;2023-08-20T06:28:48;15.20;;;11.05;;
11121;SDS011;5615;49.304;10.576;2023-08-20T06:31:14;15.32;;;11.93;;
11121;SDS011;5615;49.304;10.576;2023-08-20T06:33:41;12.27;;;11.18;;
11121;SDS011;5615;49.304;10.576;2023-08-20T06:36:08;14.75;;;13.15;;
11121;SDS011;5615;49.304;10.576;2023-08-20T06:38:36;16.73;;;15.23;;
11121;SDS011;5615;49.304;10.576;2023-08-20T06:41:03;18.83;;;17.20;;
11121;SDS011;5615;49.304;10.576;2023-08-20T06:43:30;16.92;;;15.15;;
11121;SDS011;5615;49.304;10.576;2023-08-20T06:45:56;19.83;;;18.13;;
11121;SDS011;5615;49.304;10.576;2023-08-20T06:48:23;17.15;;;15.55;;
11121;SDS011;5615;49.304;10.576;2023-08-20T06:50:51;14.57;;;12.27;;
11121;SDS011;5615;49.304;10.576;2023-08-20T06:53:18;12.10;;;11.00;;
11121;SDS011;5615;49.304;10.576;2023-08-20T06:55:46;14.10;;;12.70;;
11121;SDS011;5615;49.304;10.576;2023-08-20T06:58:12;12.60;;;11.30;;
11121;SDS011;5615;49.304;10.576;2023-08-20T07:00:39;11.68;;;10.55;;
11121;SDS011;5615;49.304;10.576;2023-08-20T07:03:06;12.80;;;11.38;;
11121;SDS011;5615;49.304;10.576;2023-08-20T07:05:32;13.10;;;11.80;;
11121;SDS011;5615;49.304;10.576;2023-08-20T07:07:59;13.43;;;12.02;;
11121;SDS011;5615;49.304;10.576;2023-08-20T07:10:26;13.45;;;11.88;;
11121;SDS011;5615;49.304;10.576;2023-08-20T07:12:54;11.60;;;10.50;;
11121;SDS011;5615;49.304;10.576;2023-08-20T07:15:20;12.68;;;10.80;;
11121;SDS011;5615;49.304;10.576;2023-08-20T07:17:47;15.07;;;10.93;;
11121;SDS011;5615;49.304;10.576;2023-08-20T07:20:14;11.45;;;10.18;;
11121;SDS011;5615;49.304;10.576;2023-08-20T07:22:40;12.95;;;11.75;;
11121;SDS011;5615;49.304;10.576;2023-08-20T07:25:08;14.85;;;10.40;;
11121;SDS011;5615;49.304;10.576;2023-08-20T07:27:34;12.30;;;9.88;;
11121;SDS011;5615;49.304;10.576;2023-08-20T07:30:02;10.15;;;9.05;;
11121;SDS011;5615;49.304;10.576;2023-08-20T07:32:29;10.35;;;9.25;;
11121;SDS011;5615;49.304;10.576;2023-08-20T07:34:56;9.45;;;8.55;;
11121;SDS011;5615;49.304;10.576;2023-08-20T07:37:23;11.00;;;9.90;;
11121;SDS011;5615;49.304;10.576;2023-08-20T07:39:49;10.27;;;9.30;;
11121;SDS011;5615;49.304;10.576;2023-08-20T07:42:16;10.20;;;9.07;;
11121;SDS011;5615;49.304;10.576;2023-08-20T07:44:43;14.05;;;8.77;;
11121;SDS011;5615;49.304;10.576;2023-08-20T07:47:11;10.30;;;9.20;;
11121;SDS011;5615;49.304;10.576;2023-08-20T07:49:38;11.38;;;9.57;;
11121;SDS011;5615;49.304;10.576;2023-08-20T07:52:04;9.50;;;8.57;;
11121;SDS011;5615;49.304;10.576;2023-08-20T07:54:31;9.55;;;8.30;;
11121;SDS011;5615;49.304;10.576;2023-08-20T07:56:58;10.63;;;9.30;;
11121;SDS011;5615;49.304;10.576;2023-08-20T07:59:24;14.73;;;13.55;;
11121;SDS011;5615;49.304;10.576;2023-08-20T08:01:51;14.93;;;13.45;;
11121;SDS011;5615;49.304;10.576;2023-08-20T08:04:19;12.27;;;10.50;;
11121;SDS011;5615;49.304;10.576;2023-08-20T08:06:45;13.32;;;12.13;;
11121;SDS011;5615;49.304;10.576;2023-08-20T08:09:18;13.40;;;12.05;;
11121;SDS011;5615;49.304;10.576;2023-08-20T08:11:46;13.02;;;11.82;;
11121;SDS011;5615;49.304;10.576;2023-08-20T08:14:13;13.48;;;12.30;;
11121;SDS011;5615;49.304;10.576;2023-08-20T08:16:40;11.52;;;8.40;;
11121;SDS011;5615;49.304;10.576;2023-08-20T08:19:06;13.00;;;8.20;;
11121;SDS011;5615;49.304;10.576;2023-08-20T08:21:34;9.93;;;7.90;;
11121;SDS011;5615;49.304;10.576;2023-08-20T08:24:01;8.80;;;8.00;;
11121;SDS011;5615;49.304;10.576;2023-08-20T08:26:28;12.30;;;11.07;;
11121;SDS011;5615;49.304;10.576;2023-08-20T08:28:54;15.68;;;12.85;;
11121;SDS011;5615;49.304;10.576;2023-08-20T08:31:21;11.30;;;10.40;;
11121;SDS011;5615;49.304;10.576;2023-08-20T08:33:48;15.38;;;14.30;;
11121;SDS011;5615;49.304;10.576;2023-08-20T08:36:15;15.98;;;14.60;;
11121;SDS011;5615;49.304;10.576;2023-08-20T08:38:43;22.30;;;20.58;;
11121;SDS011;5615;49.304;10.576;2023-08-20T08:41:11;19.20;;;17.73;;
11121;SDS011;5615;49.304;10.576;2023-08-20T08:43:38;20.23;;;18.52;;
11121;SDS011;5615;49.304;10.576;2023-08-20T08:46:06;18.92;;;17.38;;
11121;SDS011;5615;49.304;10.576;2023-08-20T08:48:33;23.23;;;21.38;;
11121;SDS011;5615;49.304;10.576;2023-08-20T08:51:01;18.30;;;16.80;;
11121;SDS011;5615;49.304;10.576;2023-08-20T08:53:27;17.58;;;16.42;;
11121;SDS011;5615;49.304;10.576;2023-08-20T08:55:57;14.57;;;13.07;;
11121;SDS011;5615;49.304;10.576;2023-08-20T08:58:24;13.35;;;12.25;;
11121;SDS011;5615;49.304;10.576;2023-08-20T09:00:52;13.05;;;11.93;;
11121;SDS011;5615;49.304;10.576;2023-08-20T09:03:18;13.52;;;11.75;;
11121;SDS011;5615;49.304;10.576;2023-08-20T09:05:46;12.90;;;11.98;;
11121;SDS011;5615;49.304;10.576;2023-08-20T09:08:18;13.57;;;12.15;;
11121;SDS011;5615;49.304;10.576;2023-08-20T09:10:45;18.02;;;16.20;;
11121;SDS011;5615;49.304;10.576;2023-08-20T09:13:13;19.90;;;18.40;;
11121;SDS011;5615;49.304;10.576;2023-08-20T09:15:40;20.23;;;18.83;;
11121;SDS011;5615;49.304;10.576;2023-08-20T09:18:09;14.85;;;13.70;;
11121;SDS011;5615;49.304;10.576;2023-08-20T09:20:36;13.73;;;12.45;;
11121;SDS011;5615;49.304;10.576;2023-08-20T09:23:03;14.85;;;13.82;;
11121;SDS011;5615;49.304;10.576;2023-08-20T09:25:30;13.40;;;12.20;;
11121;SDS011;5615;49.304;10.576;2023-08-20T09:27:56;15.73;;;14.30;;
11121;SDS011;5615;49.304;10.576;2023-08-20T09:30:24;12.80;;;11.68;;
11121;SDS011;5615;49.304;10.576;2023-08-20T09:33:04;14.30;;;13.18;;
11121;SDS011;5615;49.304;10.576;2023-08-20T09:35:31;16.60;;;15.23;;
11121;SDS011;5615;49.304;10.576;2023-08-20T09:37:58;13.57;;;12.23;;
11121;SDS011;5615;49.304;10.576;2023-08-20T09:40:26;12.02;;;9.77;;
11121;SDS011;5615;49.304;10.576;2023-08-20T09:42:53;10.73;;;9.68;;
11121;SDS011;5615;49.304;10.576;2023-08-20T09:45:20;13.60;;;12.55;;
11121;SDS011;5615;49.304;10.576;2023-08-20T09:47:53;33.42;;;31.33;;
11121;SDS011;5615;49.304;10.576;2023-08-20T09:50:21;40.22;;;37.33;;
11121;SDS011;5615;49.304;10.576;2023-08-20T09:52:52;27.85;;;25.60;;
11121;SDS011;5615;49.304;10.576;2023-08-20T09:55:25;20.67;;;19.02;;
11121;SDS011;5615;49.304;10.576;2023-08-20T09:57:55;11.15;;;9.68;;
11121;SDS011;5615;49.304;10.576;2023-08-20T10:00:25;13.50;;;12.30;;
11121;SDS011;5615;49.304;10.576;2023-08-20T10:02:53;18.85;;;17.60;;
11121;SDS011;5615;49.304;10.576;2023-08-20T10:05:20;13.75;;;12.55;;
11121;SDS011;5615;49.304;10.576;2023-08-20T10:07:49;12.35;;;10.55;;
11121;SDS011;5615;49.304;10.576;2023-08-20T10:10:16;17.27;;;15.98;;
11121;SDS011;5615;49.304;10.576;2023-08-20T10:12:43;18.15;;;16.88;;
11121;SDS011;5615;49.304;10.576;2023-08-20T10:15:11;26.85;;;25.02;;
11121;SDS011;5615;49.304;10.576;2023-08-20T10:17:40;26.40;;;24.58;;
11121;SDS011;5615;49.304;10.576;2023-08-20T10:20:10;18.77;;;16.88;;
11121;SDS011;5615;49.304;10.576;2023-08-20T10:22:40;14.23;;;9.48;;
11121;SDS011;5615;49.304;10.576;2023-08-20T10:25:07;8.48;;;7.65;;
11121;SDS011;5615;49.304;10.576;2023-08-20T10:27:36;10.52;;;6.97;;
11121;SDS011;5615;49.304;10.576;2023-08-20T10:30:07;8.68;;;6.93;;
11121;SDS011;5615;49.304;10.576;2023-08-20T10:32:43;11.73;;;6.60;;
11121;SDS011;5615;49.304;10.576;2023-08-20T10:35:12;7.53;;;6.80;;
11121;SDS011;5615;49.304;10.576;2023-08-20T10:43:27;11.18;;;6.35;;
11121;SDS011;5615;49.304;10.576;2023-08-20T10:46:14;8.05;;;6.00;;
11121;SDS011;5615;49.304;10.576;2023-08-20T10:48:42;10.02;;;6.68;;
11121;SDS011;5615;49.304;10.576;2023-08-20T10:51:14;7.40;;;6.72;;
11121;SDS011;5615;49.304;10.576;2023-08-20T10:53:42;11.55;;;6.63;;
11121;SDS011;5615;49.304;10.576;2023-08-20T10:56:13;7.38;;;6.20;;
11121;SDS011;5615;49.304;10.576;2023-08-20T10:58:41;8.55;;;5.97;;
11121;SDS011;5615;49.304;10.576;2023-08-20T11:01:15;5.95;;;5.38;;
11121;SDS011;5615;49.304;10.576;2023-08-20T11:03:46;7.60;;;5.88;;
11121;SDS011;5615;49.304;10.576;2023-08-20T11:06:16;8.23;;;5.50;;
11121;SDS011;5615;49.304;10.576;2023-08-20T11:08:42;8.93;;;5.63;;
11121;SDS011;5615;49.304;10.576;2023-08-20T11:11:09;5.93;;;5.22;;
11121;SDS011;5615;49.304;10.576;2023-08-20T11:13:36;6.82;;;5.10;;
11121;SDS011;5615;49.304;10.576;2023-08-20T11:16:03;9.98;;;5.13;;
11121;SDS011;5615;49.304;10.576;2023-08-20T11:18:32;7.40;;;5.40;;
11121;SDS011;5615;49.304;10.576;2023-08-20T11:20:59;6.43;;;4.93;;
11121;SDS011;5615;49.304;10.576;2023-08-20T11:23:28;6.78;;;5.28;;
11121;SDS011;5615;49.304;10.576;2023-08-20T11:25:56;6.13;;;5.10;;
11121;SDS011;5615;49.304;10.576;2023-08-20T11:28:24;5.65;;;4.90;;
11121;SDS011;5615;49.304;10.576;2023-08-20T11:30:51;6.35;;;5.00;;
11121;SDS011;5615;49.304;10.576;2023-08-20T11:33:19;7.30;;;5.15;;
11121;SDS011;5615;49.304;10.576;2023-08-20T11:35:47;10.07;;;5.55;;
11121;SDS011;5615;49.304;10.576;2023-08-20T11:38:13;7.40;;;5.30;;
11121;SDS011;5615;49.304;10.576;2023-08-20T11:40:42;8.00;;;5.50;;
11121;SDS011;5615;49.304;10.576;2023-08-20T11:43:08;8.45;;;5.45;;
11121;SDS011;5615;49.304;10.576;2023-08-20T11:45:43;9.27;;;5.60;;
11121;SDS011;5615;49.304;10.576;2023-08-20T11:48:11;7.60;;;5.50;;
11121;SDS011;5615;49.304;10.576;2023-08-20T11:50:37;7.78;;;5.22;;
11121;SDS011;5615;49.304;10.576;2023-08-20T11:53:05;5.75;;;5.10;;
11121;SDS011;5615;49.304;10.576;2023-08-20T11:55:32;8.80;;;5.15;;
11121;SDS011;5615;49.304;10.576;2023-08-20T11:58:00;9.52;;;5.80;;
11121;SDS011;5615;49.304;10.576;2023-08-20T12:00:27;7.55;;;5.60;;
11121;SDS011;5615;49.304;10.576;2023-08-20T12:02:57;6.65;;;5.78;;
11121;SDS011;5615;49.304;10.576;2023-08-20T12:05:26;7.43;;;5.35;;
11121;SDS011;5615;49.304;10.576;2023-08-20T12:07:56;8.95;;;4.97;;
11121;SDS011;5615;49.304;10.576;2023-08-20T12:10:24;11.48;;;5.57;;
11121;SDS011;5615;49.304;10.576;2023-08-20T12:12:52;7.07;;;5.30;;
11121;SDS011;5615;49.304;10.576;2023-08-20T12:15:21;5.32;;;4.68;;
11121;SDS011;5615;49.304;10.576;2023-08-20T12:17:55;7.03;;;4.78;;
11121;SDS011;5615;49.304;10.576;2023-08-20T12:20:23;9.10;;;5.25;;
11121;SDS011;5615;49.304;10.576;2023-08-20T12:22:49;8.40;;;4.88;;
11121;SDS011;5615;49.304;10.576;2023-08-20T12:25:16;6.10;;;4.82;;
11121;SDS011;5615;49.304;10.576;2023-08-20T12:27:43;6.18;;;5.57;;
11121;SDS011;5615;49.304;10.576;2023-08-20T12:30:10;11.68;;;5.80;;
11121;SDS011;5615;49.304;10.576;2023-08-20T12:32:39;9.63;;;5.30;;
11121;SDS011;5615;49.304;10.576;2023-08-20T12:35:06;5.97;;;5.38;;
11121;SDS011;5615;49.304;10.576;2023-08-20T12:37:33;7.20;;;4.93;;
11121;SDS011;5615;49.304;10.576;2023-08-20T12:39:59;5.90;;;5.18;;
11121;SDS011;5615;49.304;10.576;2023-08-20T12:42:26;8.52;;;5.07;;
11121;SDS011;5615;49.304;10.576;2023-08-20T12:44:54;7.22;;;4.93;;
11121;SDS011;5615;49.304;10.576;2023-08-20T12:47:20;8.23;;;4.78;;
11121;SDS011;5615;49.304;10.576;2023-08-20T12:49:48;5.90;;;4.82;;
11121;SDS011;5615;49.304;10.576;2023-08-20T12:52:15;5.50;;;4.53;;
11121;SDS011;5615;49.304;10.576;2023-08-20T12:54:42;8.43;;;4.78;;
11121;SDS011;5615;49.304;10.576;2023-08-20T12:57:08;8.18;;;4.90;;
11121;SDS011;5615;49.304;10.576;2023-08-20T12:59:35;8.75;;;4.70;;
11121;SDS011;5615;49.304;10.576;2023-08-20T13:02:02;6.00;;;4.53;;
11121;SDS011;5615;49.304;10.576;2023-08-20T13:04:29;7.57;;;4.85;;
11121;SDS011;5615;49.304;10.576;2023-08-20T13:06:57;6.80;;;4.60;;
11121;SDS011;5615;49.304;10.576;2023-08-20T13:09:25;5.93;;;4.75;;
11121;SDS011;5615;49.304;10.576;2023-08-20T13:11:53;9.95;;;4.85;;
11121;SDS011;5615;49.304;10.576;2023-08-20T13:14:22;7.72;;;5.00;;
11121;SDS011;5615;49.304;10.576;2023-08-20T13:16:49;8.98;;;4.72;;
11121;SDS011;5615;49.304;10.576;2023-08-20T13:19:16;11.40;;;5.32;;
11121;SDS011;5615;49.304;10.576;2023-08-20T13:21:43;7.38;;;5.22;;
11121;SDS011;5615;49.304;10.576;2023-08-20T13:24:10;7.95;;;5.15;;
11121;SDS011;5615;49.304;10.576;2023-08-20T13:26:38;10.68;;;5.20;;
11121;SDS011;5615;49.304;10.576;2023-08-20T13:29:04;8.63;;;5.50;;
11121;SDS011;5615;49.304;10.576;2023-08-20T13:31:31;9.88;;;5.20;;
11121;SDS011;5615;49.304;10.576;2023-08-20T13:33:58;9.57;;;5.55;;
11121;SDS011;5615;49.304;10.576;2023-08-20T13:36:24;7.35;;;5.22;;
11121;SDS011;5615;49.304;10.576;2023-08-20T13:38:51;7.20;;;5.30;;
11121;SDS011;5615;49.304;10.576;2023-08-20T13:41:19;6.05;;;5.38;;
11121;SDS011;5615;49.304;10.576;2023-08-20T13:43:45;5.82;;;4.72;;
11121;SDS011;5615;49.304;10.576;2023-08-20T13:46:12;7.55;;;4.80;;
11121;SDS011;5615;49.304;10.576;2023-08-20T13:48:39;5.55;;;4.97;;
11121;SDS011;5615;49.304;10.576;2023-08-20T13:51:05;9.43;;;5.05;;
11121;SDS011;5615;49.304;10.576;2023-08-20T13:53:32;7.38;;;5.05;;
11121;SDS011;5615;49.304;10.576;2023-08-20T13:55:59;6.78;;;4.80;;
11121;SDS011;5615;49.304;10.576;2023-08-20T13:58:26;9.82;;;5.07;;
11121;SDS011;5615;49.304;10.576;2023-08-20T14:00:53;7.47;;;5.20;;
11121;SDS011;5615;49.304;10.576;2023-08-20T14:03:20;6.97;;;5.13;;
11121;SDS011;5615;49.304;10.576;2023-08-20T14:05:46;6.40;;;5.22;;
11121;SDS011;5615;49.304;10.576;2023-08-20T14:08:13;5.85;;;4.97;;
11121;SDS011;5615;49.304;10.576;2023-08-20T14:10:40;11.38;;;8.18;;
11121;SDS011;5615;49.304;10.576;2023-08-20T14:13:06;11.65;;;6.65;;
11121;SDS011;5615;49.304;10.576;2023-08-20T14:15:34;7.20;;;5.53;;
11121;SDS011;5615;49.304;10.576;2023-08-20T14:18:01;9.52;;;5.47;;
11121;SDS011;5615;49.304;10.576;2023-08-20T14:20:28;9.07;;;4.60;;
11121;SDS011;5615;49.304;10.576;2023-08-20T14:22:55;8.63;;;5.57;;
11121;SDS011;5615;49.304;10.576;2023-08-20T14:25:21;7.05;;;4.88;;
11121;SDS011;5615;49.304;10.576;2023-08-20T14:27:48;7.72;;;5.35;;
11121;SDS011;5615;49.304;10.576;2023-08-20T14:30:14;5.20;;;4.68;;
11121;SDS011;5615;49.304;10.576;2023-08-20T14:32:42;12.13;;;5.13;;
11121;SDS011;5615;49.304;10.576;2023-08-20T14:35:09;7.32;;;4.97;;